CYVT

Buffalo Narrows Airport

Buffalo Narrows, Saskatchewan, Canada
METAR CYVT 230400Z 09006KT 1 1/2SM -SN BR OVC008 M15/M17 A2992 RMK SN5ST3 LAST STFD OBS/NXT 231200 UTC SLP176
Observed Flight Rules
Jan-23 @ 04:00 UTC (8 hours ago) Instrument Flight Rules
Wind Visibility Clouds Conditions
90° at 6 knots 1 1/2 miles
  • Overcast at 800' AGL
  • Light Snow
  • Mist
Temperatures Readings
Current -15°C / 5°F
Dewpoint -17°C / 1°F
Humidity 85%
Altimeter 29.92" Hg
Pressure 1017.6 hPa
Elevation 434
METAR CYVT 230400Z 09006KT 1 1/2SM -SN BR OVC008 M15/M17 A2992 RMK SN5ST3 LAST STFD OBS/NXT 231200 UTC SLP176
Observed Flight Rules
Jan-23 @ 04:00 UTC
(8 hours ago)
IFR
Wind Visibility
90° at 6 knots 1 1/2 miles
Clouds
  • Overcast at 800' AGL
Conditions
  • Light Snow
  • Mist
Temperature Dewpoint
-15°C / 5°F -17°C / 1°F
Humidity Altimeter Pressure
85% 29.92" Hg 1017.6 hPa